Time;durP1;ratioP1;P1;durP2;ratioP2;P2;SDS_P1;SDS_P2;PMS_P1;PMS_P2;Temp;Humidity;BMP_temperature;BMP_pressure;BME280_temperature;BME280_humidity;BME280_pressure;Samples;Min_cycle;Max_cycle;Signal;HPM_P1;HPM_P2
2023/12/30 00:02:09;;;;;;;4.30;1.83;;;9.20;99.90;;;;;;5045756;28;20504;-61
2023/12/30 00:04:36;;;;;;;1.50;1.40;;;9.20;99.90;;;;;;5049907;28;20529;-61
2023/12/30 00:07:03;;;;;;;1.30;1.23;;;9.20;99.90;;;;;;5052753;28;20202;-60
2023/12/30 00:09:30;;;;;;;2.63;1.97;;;9.10;99.90;;;;;;5048102;28;20433;-61
2023/12/30 00:11:58;;;;;;;1.52;1.23;;;9.20;99.90;;;;;;5046891;28;20966;-60
2023/12/30 00:14:25;;;;;;;2.00;1.43;;;9.10;99.90;;;;;;5047545;28;20213;-60
2023/12/30 00:16:52;;;;;;;1.23;1.23;;;9.20;99.90;;;;;;5048852;28;20486;-59
2023/12/30 00:19:19;;;;;;;2.13;1.33;;;9.20;99.90;;;;;;5042603;28;20229;-61
2023/12/30 00:21:46;;;;;;;1.93;1.43;;;9.20;99.90;;;;;;5045097;28;20476;-59
2023/12/30 00:24:12;;;;;;;3.50;1.70;;;9.20;99.90;;;;;;5047111;28;20451;-61
2023/12/30 00:26:39;;;;;;;4.57;1.60;;;9.20;99.90;;;;;;5050858;28;20202;-61
2023/12/30 00:29:07;;;;;;;3.70;1.33;;;9.20;99.90;;;;;;5042777;28;20613;-61
2023/12/30 00:31:34;;;;;;;2.97;1.93;;;9.20;99.90;;;;;;5043559;28;20234;-61
2023/12/30 00:34:02;;;;;;;1.63;1.50;;;9.30;99.90;;;;;;5049892;28;20443;-59
2023/12/30 00:36:29;;;;;;;3.00;1.57;;;9.30;99.90;;;;;;5041842;28;20487;-61
2023/12/30 00:38:57;;;;;;;3.58;1.60;;;9.30;99.90;;;;;;5065439;22;20522;-53
2023/12/30 00:41:24;;;;;;;2.67;1.20;;;9.30;99.90;;;;;;5020177;28;20290;-54
2023/12/30 00:43:51;;;;;;;1.70;1.60;;;9.30;99.90;;;;;;5021070;28;20472;-57
2023/12/30 00:46:20;;;;;;;2.03;1.40;;;9.30;99.90;;;;;;5026056;28;20825;-55
2023/12/30 00:48:47;;;;;;;1.83;1.53;;;9.40;99.90;;;;;;5021019;28;20467;-57
2023/12/30 00:51:14;;;;;;;1.30;1.20;;;9.40;99.90;;;;;;5019423;28;20534;-56
2023/12/30 00:53:41;;;;;;;1.70;1.10;;;9.40;99.90;;;;;;5018207;28;20473;-57
2023/12/30 00:56:08;;;;;;;3.60;1.03;;;9.40;99.90;;;;;;5023318;28;20533;-55
2023/12/30 00:58:35;;;;;;;1.73;1.33;;;9.40;99.90;;;;;;5012698;28;20471;-56
2023/12/30 01:01:01;;;;;;;3.30;1.33;;;9.40;99.90;;;;;;5015645;28;20487;-57
2023/12/30 01:03:30;;;;;;;1.67;1.33;;;9.40;99.90;;;;;;5026376;28;20470;-55
2023/12/30 01:05:56;;;;;;;1.55;1.45;;;9.40;99.90;;;;;;5022924;28;20244;-54
2023/12/30 01:08:23;;;;;;;2.30;1.47;;;9.40;99.90;;;;;;5021652;28;20223;-59
2023/12/30 01:10:50;;;;;;;1.30;1.30;;;9.40;99.90;;;;;;5009724;28;20439;-58
2023/12/30 01:13:17;;;;;;;2.17;1.55;;;9.30;99.90;;;;;;5024587;28;20550;-59
2023/12/30 01:15:44;;;;;;;3.85;1.80;;;9.40;99.90;;;;;;5015675;28;20235;-55
2023/12/30 01:18:11;;;;;;;2.10;1.17;;;9.30;99.90;;;;;;5021690;28;20575;-58
2023/12/30 01:20:39;;;;;;;1.55;1.17;;;9.30;99.90;;;;;;5014412;28;20314;-56
2023/12/30 01:23:06;;;;;;;0.97;0.97;;;9.20;99.90;;;;;;5012625;28;20302;-60
2023/12/30 01:25:32;;;;;;;1.60;1.50;;;9.20;99.90;;;;;;5018806;28;20945;-56
2023/12/30 01:27:59;;;;;;;4.47;2.20;;;9.20;99.90;;;;;;5017235;28;20449;-59
2023/12/30 01:30:26;;;;;;;2.10;1.90;;;9.20;99.90;;;;;;5013884;28;20253;-53
2023/12/30 01:32:53;;;;;;;1.50;1.40;;;9.30;99.90;;;;;;5023192;28;20450;-55
2023/12/30 01:35:20;;;;;;;1.83;1.63;;;9.30;99.90;;;;;;5024589;28;20451;-57
2023/12/30 01:37:48;;;;;;;1.17;1.10;;;9.20;99.90;;;;;;5022938;28;20199;-57
2023/12/30 01:40:15;;;;;;;1.20;1.10;;;9.20;99.90;;;;;;5014629;28;21005;-54
2023/12/30 01:42:41;;;;;;;2.00;1.57;;;9.20;99.90;;;;;;5012023;28;20450;-57
2023/12/30 01:45:09;;;;;;;1.97;1.77;;;9.20;99.90;;;;;;5022236;28;20455;-55
2023/12/30 01:47:37;;;;;;;1.05;1.05;;;9.10;99.90;;;;;;5015274;28;20541;-58
2023/12/30 01:50:06;;;;;;;1.30;1.30;;;9.10;99.90;;;;;;5010236;28;20702;-58
2023/12/30 01:52:34;;;;;;;2.33;1.80;;;9.10;99.90;;;;;;5010789;28;20554;-57
2023/12/30 01:55:03;;;;;;;1.42;0.90;;;9.00;99.90;;;;;;5011051;28;20658;-55
2023/12/30 01:57:30;;;;;;;2.63;1.07;;;9.00;99.90;;;;;;5011281;28;20214;-58
2023/12/30 01:59:57;;;;;;;1.95;1.45;;;9.00;99.90;;;;;;5011525;28;21056;-54
2023/12/30 02:02:24;;;;;;;2.03;1.10;;;9.00;99.90;;;;;;5012304;28;20298;-55
2023/12/30 02:04:51;;;;;;;5.00;1.20;;;9.00;99.90;;;;;;5012167;28;20219;-54
2023/12/30 02:07:18;;;;;;;2.00;1.05;;;8.90;99.90;;;;;;5012131;28;20455;-56
2023/12/30 02:09:45;;;;;;;1.73;1.13;;;8.90;99.90;;;;;;5011772;28;20318;-54
2023/12/30 02:12:14;;;;;;;0.85;0.82;;;8.90;99.90;;;;;;5010697;28;20216;-59
2023/12/30 02:14:40;;;;;;;1.00;0.98;;;8.90;99.90;;;;;;5012571;28;20302;-54
2023/12/30 02:17:07;;;;;;;1.50;1.38;;;8.90;99.90;;;;;;5012636;28;20290;-55
2023/12/30 02:19:35;;;;;;;1.13;1.02;;;8.90;99.90;;;;;;5012432;28;20228;-55
2023/12/30 02:22:02;;;;;;;4.05;1.42;;;8.90;99.90;;;;;;5012545;28;20223;-58
2023/12/30 02:24:30;;;;;;;1.38;1.27;;;8.90;99.90;;;;;;5012533;28;20218;-56
2023/12/30 02:26:57;;;;;;;1.77;1.08;;;8.90;99.90;;;;;;5012565;28;20208;-56
2023/12/30 02:29:24;;;;;;;2.73;1.40;;;8.90;99.90;;;;;;5012184;28;20334;-56
2023/12/30 02:31:51;;;;;;;3.15;1.58;;;8.90;99.90;;;;;;5012340;28;20537;-58
2023/12/30 02:34:19;;;;;;;4.67;1.47;;;8.90;99.90;;;;;;5012421;28;20203;-52
2023/12/30 02:36:46;;;;;;;3.27;1.40;;;8.90;99.90;;;;;;5012417;28;20541;-54
2023/12/30 02:39:13;;;;;;;2.05;1.48;;;8.90;99.90;;;;;;5014285;28;20497;-57
2023/12/30 02:41:41;;;;;;;2.40;1.00;;;8.90;99.90;;;;;;5013315;28;20318;-53
2023/12/30 02:44:09;;;;;;;4.05;1.67;;;8.80;99.90;;;;;;5018008;28;20214;-56
2023/12/30 02:46:36;;;;;;;2.30;1.35;;;8.80;99.90;;;;;;5012066;28;20211;-56
2023/12/30 02:49:04;;;;;;;1.83;1.40;;;8.90;99.90;;;;;;5011821;28;20318;-56
2023/12/30 02:51:32;;;;;;;1.30;1.20;;;8.90;99.90;;;;;;5011051;28;20546;-55
2023/12/30 02:54:00;;;;;;;6.73;1.13;;;8.90;99.90;;;;;;5011345;28;20881;-56
2023/12/30 02:56:28;;;;;;;3.13;0.98;;;9.00;99.90;;;;;;5012199;28;20658;-56
2023/12/30 02:58:57;;;;;;;3.13;1.33;;;9.00;99.90;;;;;;5011878;28;20318;-56
2023/12/30 03:01:25;;;;;;;1.08;1.08;;;9.00;99.90;;;;;;5011042;28;20488;-56
2023/12/30 03:03:54;;;;;;;1.90;1.10;;;9.00;99.90;;;;;;5011730;28;20626;-53
2023/12/30 03:06:21;;;;;;;1.20;1.10;;;9.10;99.90;;;;;;5011715;28;20446;-55
2023/12/30 03:08:48;;;;;;;1.90;1.70;;;9.10;99.90;;;;;;5011567;28;20969;-56
2023/12/30 03:11:15;;;;;;;2.20;1.43;;;9.10;99.90;;;;;;5011898;28;20521;-55
2023/12/30 03:13:42;;;;;;;2.55;1.25;;;9.10;99.90;;;;;;5012061;28;20469;-55
2023/12/30 03:16:13;;;;;;;2.73;1.70;;;9.10;99.90;;;;;;5011826;28;20278;-55
2023/12/30 03:18:40;;;;;;;1.08;1.05;;;9.10;99.90;;;;;;5011223;28;20467;-56
2023/12/30 03:21:08;;;;;;;2.30;1.17;;;9.10;99.90;;;;;;5011827;28;20322;-57
2023/12/30 03:23:35;;;;;;;1.23;0.80;;;9.10;99.90;;;;;;5011919;28;20456;-57
2023/12/30 03:26:03;;;;;;;2.20;1.37;;;9.00;99.90;;;;;;5011776;28;20546;-55
2023/12/30 03:28:29;;;;;;;3.15;1.88;;;9.10;99.90;;;;;;5011336;28;20470;-57
2023/12/30 03:30:56;;;;;;;1.80;1.13;;;9.10;99.90;;;;;;5011666;28;20222;-55
2023/12/30 03:33:25;;;;;;;2.40;1.20;;;9.10;99.90;;;;;;5011567;28;20447;-55
2023/12/30 03:35:52;;;;;;;1.30;1.20;;;9.10;99.90;;;;;;5011526;28;20698;-54
2023/12/30 03:38:19;;;;;;;2.93;1.27;;;9.10;99.90;;;;;;5011244;28;20774;-55
2023/12/30 03:40:45;;;;;;;3.42;1.40;;;9.20;99.90;;;;;;5011385;28;20488;-55
2023/12/30 03:43:13;;;;;;;1.83;1.00;;;9.20;99.90;;;;;;5011613;28;20214;-54
2023/12/30 03:45:40;;;;;;;1.90;1.45;;;9.20;99.90;;;;;;5011451;28;20457;-56
2023/12/30 03:48:08;;;;;;;2.77;1.70;;;9.20;99.90;;;;;;5011424;28;20212;-56
2023/12/30 03:50:36;;;;;;;1.35;1.30;;;9.20;99.90;;;;;;5011494;28;20526;-53
2023/12/30 03:53:04;;;;;;;1.70;1.30;;;9.10;99.90;;;;;;5011837;28;20606;-54
2023/12/30 03:55:31;;;;;;;0.93;0.93;;;9.10;99.90;;;;;;5011493;28;20454;-57
2023/12/30 03:57:58;;;;;;;3.03;1.30;;;9.10;99.90;;;;;;5011404;28;20450;-59
2023/12/30 04:00:25;;;;;;;1.57;1.47;;;9.10;99.90;;;;;;5010997;28;20612;-57
2023/12/30 04:02:52;;;;;;;2.03;1.73;;;9.10;99.90;;;;;;5011404;28;21176;-54
2023/12/30 04:05:18;;;;;;;0.83;0.83;;;9.00;99.90;;;;;;5011475;28;20594;-56
2023/12/30 04:07:47;;;;;;;2.90;1.13;;;9.00;99.90;;;;;;5016391;28;20443;-54
2023/12/30 04:10:15;;;;;;;2.33;1.45;;;9.00;99.90;;;;;;5010937;28;20468;-56
2023/12/30 04:12:42;;;;;;;2.20;1.40;;;9.00;99.90;;;;;;5012570;28;20207;-53
2023/12/30 04:15:10;;;;;;;6.88;1.60;;;9.00;99.90;;;;;;5015095;28;20461;-55
2023/12/30 04:17:37;;;;;;;1.38;1.27;;;9.00;99.90;;;;;;5014788;28;20298;-60
2023/12/30 04:20:05;;;;;;;1.50;1.40;;;8.90;99.90;;;;;;5014704;28;20240;-59
2023/12/30 04:22:32;;;;;;;1.35;1.25;;;8.90;99.90;;;;;;5014951;28;20609;-57
2023/12/30 04:25:00;;;;;;;2.58;1.60;;;8.90;99.90;;;;;;5014658;28;20310;-56
2023/12/30 04:27:27;;;;;;;4.47;2.40;;;8.90;99.90;;;;;;5014534;28;20215;-58
2023/12/30 04:29:54;;;;;;;2.47;1.77;;;8.80;99.90;;;;;;5013647;28;20319;-57
2023/12/30 04:32:21;;;;;;;1.70;1.40;;;8.80;99.90;;;;;;5014126;28;20449;-59
2023/12/30 04:34:49;;;;;;;2.65;1.67;;;8.90;99.90;;;;;;5014561;28;20208;-56
2023/12/30 04:37:15;;;;;;;6.13;1.50;;;8.80;99.90;;;;;;5014353;28;20299;-57
2023/12/30 04:39:42;;;;;;;2.30;1.87;;;8.80;99.90;;;;;;5014086;28;20474;-58
2023/12/30 04:42:11;;;;;;;1.60;1.50;;;8.70;99.90;;;;;;5014259;28;21008;-54
2023/12/30 04:44:38;;;;;;;2.40;1.30;;;8.60;99.90;;;;;;5014442;28;20347;-57
2023/12/30 04:47:06;;;;;;;1.58;1.25;;;8.60;99.90;;;;;;5014185;28;20596;-57
2023/12/30 04:49:33;;;;;;;1.98;1.88;;;8.50;99.90;;;;;;5014026;28;20727;-57
2023/12/30 04:51:59;;;;;;;5.35;2.65;;;8.50;99.90;;;;;;5014085;28;20689;-53
2023/12/30 04:54:26;;;;;;;1.40;1.40;;;8.50;99.90;;;;;;5014283;28;20214;-54
2023/12/30 04:56:53;;;;;;;1.92;1.35;;;8.50;99.90;;;;;;5014031;28;20674;-56
2023/12/30 04:59:21;;;;;;;1.60;1.10;;;8.50;99.90;;;;;;5013752;28;20255;-56
2023/12/30 05:01:48;;;;;;;1.48;1.38;;;8.50;99.90;;;;;;5014032;28;20224;-54
2023/12/30 05:04:15;;;;;;;1.67;1.58;;;8.50;99.90;;;;;;5013630;28;20697;-57
2023/12/30 05:06:42;;;;;;;1.33;1.23;;;8.60;99.90;;;;;;5013696;28;20675;-57
2023/12/30 05:09:14;;;;;;;2.15;1.30;;;8.50;99.90;;;;;;5013674;28;20466;-54
2023/12/30 05:11:43;;;;;;;1.70;1.40;;;8.60;99.90;;;;;;5014040;28;20641;-53
2023/12/30 05:14:10;;;;;;;2.20;1.45;;;8.60;99.90;;;;;;5013857;28;20212;-53
2023/12/30 05:16:44;;;;;;;1.83;1.73;;;8.70;99.90;;;;;;5013969;28;20326;-57
2023/12/30 05:19:11;;;;;;;2.47;1.30;;;8.70;99.90;;;;;;5013387;28;20459;-55
2023/12/30 05:21:37;;;;;;;5.70;1.55;;;8.70;99.90;;;;;;5013696;28;20365;-57
2023/12/30 05:24:05;;;;;;;1.60;1.50;;;8.70;99.90;;;;;;5012667;28;20208;-58
2023/12/30 05:26:32;;;;;;;2.17;1.60;;;8.80;99.90;;;;;;5013586;28;20295;-57
2023/12/30 05:28:59;;;;;;;2.85;1.48;;;8.80;99.90;;;;;;5013288;28;20228;-58
2023/12/30 05:31:26;;;;;;;5.35;1.73;;;8.80;99.90;;;;;;5013425;28;20697;-55
2023/12/30 05:33:54;;;;;;;1.50;1.40;;;8.80;99.90;;;;;;5013517;28;20215;-55
2023/12/30 05:36:21;;;;;;;3.35;3.05;;;8.90;99.90;;;;;;5013492;28;20580;-58
2023/12/30 05:38:48;;;;;;;1.60;1.50;;;8.90;99.90;;;;;;5012984;28;20250;-58
2023/12/30 05:41:14;;;;;;;4.35;1.63;;;8.90;99.90;;;;;;5013304;28;20227;-57
2023/12/30 05:43:41;;;;;;;3.78;1.55;;;8.90;99.90;;;;;;5013515;28;20298;-57
2023/12/30 05:46:08;;;;;;;3.23;1.43;;;8.90;99.90;;;;;;5013065;28;20212;-55
2023/12/30 05:48:35;;;;;;;1.57;1.47;;;9.00;99.90;;;;;;5013124;28;20473;-55
2023/12/30 05:51:03;;;;;;;1.70;1.60;;;9.00;99.90;;;;;;5013318;28;20447;-56
2023/12/30 05:53:30;;;;;;;2.10;1.90;;;9.00;99.90;;;;;;5013108;28;20469;-57
2023/12/30 05:55:57;;;;;;;1.27;1.27;;;9.00;99.90;;;;;;5012876;28;20302;-55
2023/12/30 05:58:24;;;;;;;2.05;1.40;;;9.00;99.90;;;;;;5012814;28;20227;-57
2023/12/30 06:00:51;;;;;;;4.55;1.40;;;9.00;99.90;;;;;;5013027;28;20307;-53
2023/12/30 06:03:18;;;;;;;2.88;1.65;;;9.00;99.90;;;;;;5013099;28;20218;-57
2023/12/30 06:05:44;;;;;;;2.70;1.75;;;9.10;99.90;;;;;;5012916;28;20207;-57
2023/12/30 06:08:13;;;;;;;1.70;1.60;;;9.10;99.90;;;;;;5012751;28;20208;-53
2023/12/30 06:10:39;;;;;;;6.07;2.78;;;9.10;99.90;;;;;;5012608;28;20453;-56
2023/12/30 06:13:06;;;;;;;8.57;3.53;;;9.10;99.90;;;;;;5012604;28;20210;-58
2023/12/30 06:15:33;;;;;;;8.47;4.80;;;9.10;99.90;;;;;;5012879;28;20457;-55
2023/12/30 06:18:00;;;;;;;4.23;2.53;;;9.10;99.90;;;;;;5012504;28;20450;-57
2023/12/30 06:20:27;;;;;;;4.77;4.17;;;9.10;99.90;;;;;;5012282;28;20470;-57
2023/12/30 06:22:54;;;;;;;6.50;5.53;;;9.10;99.90;;;;;;5012549;28;20544;-55
2023/12/30 06:25:23;;;;;;;3.17;2.97;;;9.10;99.90;;;;;;5012422;28;20453;-56
2023/12/30 06:27:50;;;;;;;3.67;3.30;;;9.10;99.90;;;;;;5012289;28;20458;-54
2023/12/30 06:30:17;;;;;;;3.43;2.53;;;9.10;99.90;;;;;;5012331;28;20467;-56
2023/12/30 06:32:44;;;;;;;3.10;1.53;;;9.10;99.90;;;;;;5012632;28;20814;-56
2023/12/30 06:35:11;;;;;;;4.30;2.57;;;9.00;99.90;;;;;;5012140;28;20446;-55
2023/12/30 06:37:37;;;;;;;4.90;1.83;;;9.00;99.90;;;;;;5011771;28;20546;-58
2023/12/30 06:40:05;;;;;;;5.97;2.85;;;9.00;99.90;;;;;;5065242;22;20496;-61
2023/12/30 06:42:33;;;;;;;4.03;2.15;;;8.90;99.90;;;;;;5051743;28;20236;-61
2023/12/30 06:45:00;;;;;;;5.47;2.33;;;8.90;99.90;;;;;;5052040;28;20759;-61
2023/12/30 06:47:27;;;;;;;2.30;2.10;;;8.90;99.90;;;;;;5051937;28;20282;-61
2023/12/30 06:49:54;;;;;;;1.77;1.67;;;8.90;99.90;;;;;;5051672;28;20473;-61
2023/12/30 06:52:21;;;;;;;2.93;1.87;;;8.90;99.90;;;;;;5051697;28;20209;-60
2023/12/30 06:54:48;;;;;;;2.90;2.13;;;8.80;99.90;;;;;;5051721;28;20449;-61
2023/12/30 06:57:15;;;;;;;1.70;1.60;;;8.80;99.90;;;;;;5051320;28;20201;-60
2023/12/30 06:59:43;;;;;;;1.80;1.70;;;8.80;99.90;;;;;;5070726;28;21005;-60
2023/12/30 07:02:09;;;;;;;2.40;1.47;;;8.80;99.90;;;;;;5065156;28;20487;-60
2023/12/30 07:04:36;;;;;;;2.08;1.50;;;8.70;99.90;;;;;;5050866;28;20464;-60
2023/12/30 07:07:03;;;;;;;3.10;1.67;;;8.70;99.90;;;;;;5050200;28;20252;-61
2023/12/30 07:09:30;;;;;;;4.03;3.47;;;8.70;99.90;;;;;;5049345;28;20220;-61
2023/12/30 07:11:57;;;;;;;1.60;1.50;;;8.70;99.90;;;;;;5050786;28;20684;-59
2023/12/30 07:14:24;;;;;;;4.30;2.05;;;8.70;99.90;;;;;;5050187;28;20293;-61
2023/12/30 07:16:52;;;;;;;4.55;2.15;;;8.60;99.90;;;;;;5050766;28;20217;-60
2023/12/30 07:19:19;;;;;;;2.42;1.80;;;8.60;99.90;;;;;;5050297;28;20222;-60
2023/12/30 07:21:46;;;;;;;2.60;2.40;;;8.60;99.90;;;;;;5051001;28;20214;-60
2023/12/30 07:24:12;;;;;;;3.28;2.83;;;8.60;99.90;;;;;;5050244;28;20198;-60
2023/12/30 07:26:39;;;;;;;3.65;1.90;;;8.60;99.90;;;;;;5050973;28;20198;-60
2023/12/30 07:29:06;;;;;;;3.65;3.35;;;8.50;99.90;;;;;;5051119;28;20608;-60
2023/12/30 07:31:33;;;;;;;5.88;3.20;;;8.50;99.90;;;;;;5051550;28;20202;-60
2023/12/30 07:34:03;;;;;;;2.75;2.22;;;8.50;99.90;;;;;;5051324;28;20206;-60
2023/12/30 07:36:31;;;;;;;7.70;2.40;;;8.50;99.90;;;;;;5051534;28;20209;-60
2023/12/30 07:38:58;;;;;;;8.10;3.63;;;8.50;99.90;;;;;;5050265;28;20534;-60
2023/12/30 07:41:25;;;;;;;3.20;2.90;;;8.60;99.90;;;;;;5050561;28;20664;-60
2023/12/30 07:43:52;;;;;;;5.45;3.72;;;8.60;99.90;;;;;;5051484;28;20451;-60
2023/12/30 07:46:19;;;;;;;5.80;4.05;;;8.60;99.90;;;;;;5051288;28;20210;-60
2023/12/30 07:48:46;;;;;;;2.67;2.47;;;8.60;99.90;;;;;;5054229;28;20321;-60
2023/12/30 07:51:14;;;;;;;4.95;3.30;;;8.60;99.90;;;;;;5055176;28;20210;-60
2023/12/30 07:53:41;;;;;;;2.92;2.72;;;8.60;99.90;;;;;;5055231;28;20206;-60
2023/12/30 07:56:08;;;;;;;4.50;4.15;;;8.60;99.90;;;;;;5055200;28;20599;-60
2023/12/30 07:58:36;;;;;;;8.77;5.70;;;8.70;99.90;;;;;;5054574;28;20677;-61
2023/12/30 08:01:03;;;;;;;9.48;7.00;;;8.70;99.90;;;;;;5054900;28;20206;-59
2023/12/30 08:03:29;;;;;;;10.88;3.22;;;8.70;99.90;;;;;;5054881;28;20313;-60
2023/12/30 08:05:56;;;;;;;4.45;3.60;;;8.70;99.90;;;;;;5054713;28;20700;-61
2023/12/30 08:08:24;;;;;;;5.73;3.00;;;8.80;99.90;;;;;;5054797;28;20217;-61
2023/12/30 08:10:51;;;;;;;4.73;3.50;;;8.70;99.90;;;;;;5054925;28;20532;-60
2023/12/30 08:13:18;;;;;;;6.32;3.95;;;8.80;99.90;;;;;;5054649;28;20449;-60
2023/12/30 08:15:45;;;;;;;4.40;3.28;;;8.80;99.90;;;;;;5054871;28;20293;-60
2023/12/30 08:18:12;;;;;;;4.83;3.33;;;8.80;99.90;;;;;;5054601;28;20245;-60
2023/12/30 08:20:38;;;;;;;4.75;3.38;;;8.80;99.90;;;;;;5054031;28;20468;-59
2023/12/30 08:23:05;;;;;;;3.75;2.67;;;8.80;99.90;;;;;;5054565;28;20232;-59
2023/12/30 08:25:33;;;;;;;5.40;2.63;;;8.80;99.90;;;;;;5054455;28;20216;-61
2023/12/30 08:28:00;;;;;;;5.88;2.35;;;8.80;99.90;;;;;;5054296;28;20210;-61
2023/12/30 08:30:27;;;;;;;5.38;2.40;;;8.80;99.90;;;;;;5053354;28;20730;-59
2023/12/30 08:32:55;;;;;;;2.58;2.38;;;8.80;99.90;;;;;;5053639;28;20199;-58
2023/12/30 08:35:21;;;;;;;3.45;1.70;;;8.80;99.90;;;;;;5053963;28;20252;-60
2023/12/30 08:37:48;;;;;;;1.38;1.38;;;8.80;99.90;;;;;;5054387;28;20210;-60
2023/12/30 08:40:15;;;;;;;3.08;1.55;;;8.70;99.90;;;;;;5053569;28;20253;-59
2023/12/30 08:42:44;;;;;;;1.10;1.10;;;8.70;99.90;;;;;;5053955;28;20226;-59
2023/12/30 08:45:18;;;;;;;1.83;1.55;;;8.60;99.90;;;;;;5054064;28;20216;-60
2023/12/30 08:47:45;;;;;;;1.80;1.30;;;8.50;99.90;;;;;;5033899;28;20210;-59
2023/12/30 08:50:12;;;;;;;1.70;1.42;;;8.40;99.90;;;;;;5033784;28;20322;-60
2023/12/30 08:52:39;;;;;;;1.55;1.45;;;8.40;99.90;;;;;;5034116;28;20210;-60
2023/12/30 08:55:10;;;;;;;1.95;1.48;;;8.30;99.90;;;;;;5034059;28;20215;-60
2023/12/30 08:57:37;;;;;;;1.60;1.42;;;8.30;99.90;;;;;;5033920;28;20214;-58
2023/12/30 09:00:08;;;;;;;1.92;1.38;;;8.30;99.90;;;;;;5033375;28;20234;-60
2023/12/30 09:02:35;;;;;;;3.40;1.27;;;8.30;99.90;;;;;;5033960;28;20227;-58
2023/12/30 09:05:02;;;;;;;1.55;1.15;;;8.30;99.90;;;;;;5043728;28;20738;-59
2023/12/30 09:07:29;;;;;;;3.22;1.60;;;8.30;99.90;;;;;;5040288;28;20210;-59
2023/12/30 09:09:57;;;;;;;3.55;2.00;;;8.30;99.90;;;;;;5043884;28;20317;-60
2023/12/30 09:12:24;;;;;;;3.70;2.25;;;8.40;99.90;;;;;;5053199;28;20199;-60
2023/12/30 09:14:51;;;;;;;2.50;2.03;;;8.40;99.90;;;;;;5052960;28;20323;-58
2023/12/30 09:17:19;;;;;;;3.57;2.37;;;8.50;99.90;;;;;;5036599;28;20298;-58
2023/12/30 09:19:46;;;;;;;2.20;1.50;;;8.50;99.90;;;;;;5049392;28;20477;-58
2023/12/30 09:22:13;;;;;;;4.60;1.50;;;8.60;99.90;;;;;;5053180;28;20485;-59
2023/12/30 09:24:41;;;;;;;2.38;1.45;;;8.70;99.90;;;;;;5041132;28;20206;-57
2023/12/30 09:27:08;;;;;;;1.43;1.17;;;8.80;99.90;;;;;;5039674;28;20694;-59
2023/12/30 09:29:35;;;;;;;1.70;1.60;;;8.80;99.90;;;;;;5052016;28;20998;-59
2023/12/30 09:32:02;;;;;;;1.43;1.33;;;8.90;99.90;;;;;;5046304;28;20297;-58
2023/12/30 09:34:30;;;;;;;2.53;2.30;;;9.00;99.90;;;;;;5036579;28;20450;-59
2023/12/30 09:36:58;;;;;;;3.72;1.98;;;9.10;99.90;;;;;;5052979;28;20209;-60
2023/12/30 09:39:24;;;;;;;3.67;3.08;;;9.10;99.90;;;;;;5052654;28;20716;-60
2023/12/30 09:41:51;;;;;;;4.03;1.93;;;9.10;99.90;;;;;;5052480;28;20210;-58
2023/12/30 09:44:19;;;;;;;2.83;2.00;;;9.20;99.90;;;;;;5052975;28;20453;-60
2023/12/30 09:46:47;;;;;;;6.10;2.50;;;9.30;99.90;;;;;;5042964;28;20207;-60
2023/12/30 09:49:15;;;;;;;3.40;2.70;;;9.30;99.90;;;;;;5044315;28;20983;-60
2023/12/30 09:51:43;;;;;;;3.03;2.83;;;9.40;99.90;;;;;;5037225;28;20448;-60
2023/12/30 09:54:10;;;;;;;3.58;3.28;;;9.40;99.90;;;;;;5047871;28;20437;-60
2023/12/30 09:56:40;;;;;;;7.23;3.90;;;9.50;99.90;;;;;;5035889;28;20213;-60
2023/12/30 09:59:07;;;;;;;3.40;3.20;;;9.50;99.90;;;;;;5052399;28;20879;-60
2023/12/30 10:01:34;;;;;;;3.90;2.70;;;9.60;99.90;;;;;;5052467;28;20445;-60
2023/12/30 10:04:03;;;;;;;6.10;4.40;;;9.60;99.90;;;;;;5052433;28;20484;-60
2023/12/30 10:06:32;;;;;;;7.40;5.40;;;9.60;99.90;;;;;;5071646;28;20491;-60
2023/12/30 10:09:00;;;;;;;5.87;3.80;;;9.60;99.90;;;;;;5069732;28;20468;-60
2023/12/30 10:11:27;;;;;;;6.27;3.27;;;9.60;99.90;;;;;;5070508;28;20931;-58
2023/12/30 10:13:54;;;;;;;6.90;4.23;;;9.60;99.90;;;;;;5072350;28;20443;-58
2023/12/30 10:16:21;;;;;;;6.03;3.07;;;9.60;99.90;;;;;;5071894;28;20450;-60
2023/12/30 10:18:48;;;;;;;3.03;2.83;;;9.70;99.90;;;;;;5067652;28;20467;-60
2023/12/30 10:21:18;;;;;;;4.70;3.33;;;9.60;99.90;;;;;;5051758;28;20445;-59
2023/12/30 10:23:48;;;;;;;6.63;6.13;;;9.60;99.90;;;;;;5051869;28;20495;-61
2023/12/30 10:26:16;;;;;;;3.30;3.00;;;9.60;99.90;;;;;;5048449;28;21047;-60
2023/12/30 10:28:43;;;;;;;3.90;3.07;;;9.60;99.90;;;;;;5051291;28;20469;-60
2023/12/30 10:31:11;;;;;;;5.88;3.95;;;9.70;99.90;;;;;;5051754;28;20445;-60
2023/12/30 10:33:38;;;;;;;5.57;4.03;;;9.70;99.90;;;;;;5043539;28;20205;-60
2023/12/30 10:36:07;;;;;;;6.63;5.70;;;9.70;99.90;;;;;;5043704;28;20537;-61
2023/12/30 10:38:37;;;;;;;6.47;4.07;;;9.70;99.90;;;;;;5044294;28;20477;-61
2023/12/30 10:41:04;;;;;;;5.57;4.07;;;9.80;99.90;;;;;;5045529;28;20991;-60
2023/12/30 10:43:32;;;;;;;4.90;4.50;;;9.80;99.90;;;;;;5045644;28;20491;-60
2023/12/30 10:46:00;;;;;;;3.87;3.60;;;9.90;99.90;;;;;;5045235;28;20533;-61
2023/12/30 10:48:30;;;;;;;3.67;2.80;;;10.00;99.90;;;;;;5045884;28;20545;-60
2023/12/30 10:50:58;;;;;;;4.00;2.60;;;10.00;99.90;;;;;;5046830;28;20459;-61
2023/12/30 10:53:29;;;;;;;4.40;2.70;;;10.00;99.90;;;;;;5051077;28;20816;-60
2023/12/30 10:55:59;;;;;;;2.70;2.50;;;10.00;99.90;;;;;;5043799;28;20529;-60
2023/12/30 10:58:26;;;;;;;4.73;2.73;;;10.10;99.90;;;;;;5036814;28;20461;-60
2023/12/30 11:00:58;;;;;;;8.63;2.53;;;10.00;99.90;;;;;;5047490;28;20456;-61
2023/12/30 11:03:26;;;;;;;3.43;2.30;;;10.00;99.90;;;;;;5049108;28;20492;-61
2023/12/30 11:06:02;;;;;;;2.70;2.50;;;10.00;99.90;;;;;;5041803;28;21039;-60
2023/12/30 11:08:29;;;;;;;3.90;2.43;;;10.00;99.90;;;;;;5050395;28;20440;-60
2023/12/30 11:10:59;;;;;;;1.90;1.80;;;10.00;99.90;;;;;;5041734;28;20449;-61
2023/12/30 11:13:26;;;;;;;2.90;2.20;;;10.00;99.90;;;;;;5038735;28;20502;-60
2023/12/30 11:15:55;;;;;;;4.40;2.80;;;10.10;99.90;;;;;;5043414;28;20535;-61
2023/12/30 11:18:46;;;;;;;2.50;2.30;;;10.10;99.90;;;;;;5044497;28;20843;-58
2023/12/30 11:21:13;;;;;;;2.60;2.40;;;10.10;99.90;;;;;;5048948;28;20464;-60
2023/12/30 11:23:40;;;;;;;2.83;2.63;;;10.20;99.90;;;;;;5035198;28;20579;-61
2023/12/30 11:26:07;;;;;;;3.27;2.00;;;10.20;99.90;;;;;;5053299;28;20554;-60
2023/12/30 11:28:37;;;;;;;3.23;2.90;;;10.20;99.90;;;;;;5039913;28;20542;-61
2023/12/30 11:31:05;;;;;;;4.30;2.33;;;10.20;99.90;;;;;;5042794;28;20457;-59
2023/12/30 11:33:32;;;;;;;3.90;3.60;;;10.30;99.90;;;;;;5047320;28;20921;-60
2023/12/30 11:36:03;;;;;;;6.67;2.53;;;10.40;99.90;;;;;;5046139;28;20446;-61
2023/12/30 11:38:31;;;;;;;2.53;2.33;;;10.40;99.90;;;;;;5043498;28;20964;-60
2023/12/30 11:40:59;;;;;;;2.63;1.93;;;10.40;99.90;;;;;;5047674;28;20457;-60
2023/12/30 11:43:26;;;;;;;4.03;3.30;;;10.40;99.90;;;;;;5051044;28;20491;-61
2023/12/30 11:45:53;;;;;;;4.47;2.53;;;10.50;99.90;;;;;;5035569;28;20458;-61
2023/12/30 11:48:22;;;;;;;2.03;1.87;;;10.50;99.90;;;;;;5046928;28;20832;-60
2023/12/30 11:50:53;;;;;;;3.40;2.23;;;10.50;99.90;;;;;;5047886;28;20835;-60
2023/12/30 11:53:21;;;;;;;2.53;1.93;;;10.50;99.90;;;;;;5054116;28;20897;-60
2023/12/30 11:55:48;;;;;;;4.03;1.90;;;10.50;99.90;;;;;;5047686;28;20492;-61
2023/12/30 11:58:15;;;;;;;3.93;2.10;;;10.60;99.90;;;;;;5054852;28;20447;-61
2023/12/30 12:00:42;;;;;;;2.40;1.40;;;10.60;99.90;;;;;;5053687;28;20460;-61
2023/12/30 12:03:10;;;;;;;4.93;4.43;;;10.60;99.90;;;;;;5039990;28;20513;-61
2023/12/30 12:05:39;;;;;;;2.00;1.80;;;10.60;99.90;;;;;;5051957;28;20543;-61
2023/12/30 12:08:09;;;;;;;4.10;3.63;;;10.60;99.90;;;;;;5054172;28;20437;-60
2023/12/30 12:10:36;;;;;;;4.50;2.37;;;10.60;99.90;;;;;;5049996;28;20468;-62
2023/12/30 12:13:06;;;;;;;6.17;3.00;;;10.60;99.90;;;;;;5054639;28;20532;-61
2023/12/30 12:15:33;;;;;;;3.23;3.00;;;10.60;99.90;;;;;;5053457;28;20457;-61
2023/12/30 12:18:01;;;;;;;5.00;2.23;;;10.60;99.90;;;;;;5053718;28;20457;-62
2023/12/30 12:20:28;;;;;;;3.80;1.90;;;10.60;99.90;;;;;;5051284;28;20477;-61
2023/12/30 12:22:57;;;;;;;3.50;2.30;;;10.70;99.90;;;;;;5053828;28;20481;-61
2023/12/30 12:25:23;;;;;;;4.23;2.10;;;10.60;99.90;;;;;;5053261;28;20491;-62
2023/12/30 12:27:50;;;;;;;3.57;1.90;;;10.70;99.90;;;;;;5049324;28;20553;-61
2023/12/30 12:30:18;;;;;;;3.30;2.43;;;10.70;99.90;;;;;;5046916;28;21016;-61
2023/12/30 12:32:44;;;;;;;4.40;2.17;;;10.70;99.90;;;;;;5042263;28;20449;-61
2023/12/30 12:35:12;;;;;;;6.33;3.03;;;10.70;99.90;;;;;;5048077;28;20958;-61
2023/12/30 12:37:39;;;;;;;8.33;5.37;;;10.80;99.90;;;;;;5043534;28;20455;-61
2023/12/30 12:40:10;;;;;;;7.17;4.40;;;10.90;99.90;;;;;;5080920;22;20595;-59
2023/12/30 12:42:37;;;;;;;3.13;2.90;;;11.10;99.90;;;;;;5055088;28;20457;-59
2023/12/30 12:45:05;;;;;;;5.67;2.90;;;11.20;99.90;;;;;;5058235;28;20488;-55
2023/12/30 12:47:33;;;;;;;3.13;2.83;;;11.30;99.90;;;;;;5059215;28;20452;-59
2023/12/30 12:50:00;;;;;;;5.07;3.00;;;11.30;99.90;;;;;;5057535;28;20469;-58
2023/12/30 12:52:27;;;;;;;5.00;2.53;;;11.30;99.90;;;;;;5062131;28;20484;-58
2023/12/30 12:54:54;;;;;;;3.67;3.03;;;11.20;99.90;;;;;;5073629;28;20436;-58
2023/12/30 12:57:23;;;;;;;7.73;3.03;;;11.20;99.90;;;;;;5073390;28;20443;-59